Time;durP1;ratioP1;P1;durP2;ratioP2;P2;SDS_P1;SDS_P2;PMS_P1;PMS_P2;Temp;Humidity;BMP_temperature;BMP_pressure;BME280_temperature;BME280_humidity;BME280_pressure;Samples;Min_cycle;Max_cycle;Signal;HPM_P1;HPM_P2
2022/05/23 00:01:59;;;;;;;5.60;2.45;;;22.10;48.30;;;;;;4877674;29;20112;-73
2022/05/23 00:04:25;;;;;;;6.57;2.70;;;22.10;48.70;;;;;;4877446;29;20490;-73
2022/05/23 00:06:55;;;;;;;7.00;2.30;;;22.10;48.40;;;;;;4860933;29;20081;-73
2022/05/23 00:09:21;;;;;;;6.20;2.97;;;22.10;48.40;;;;;;4877071;29;20025;-73
2022/05/23 00:11:47;;;;;;;5.63;2.50;;;22.10;48.40;;;;;;4876277;29;20025;-73
2022/05/23 00:14:14;;;;;;;4.40;2.08;;;22.10;49.00;;;;;;4874406;29;20076;-71
2022/05/23 00:16:43;;;;;;;6.72;2.30;;;22.00;48.80;;;;;;4875983;29;20056;-71
2022/05/23 00:19:10;;;;;;;5.07;2.00;;;21.90;48.20;;;;;;4878670;29;20044;-71
2022/05/23 00:21:40;;;;;;;6.95;2.10;;;21.80;47.90;;;;;;4880011;29;20289;-71
2022/05/23 00:24:07;;;;;;;5.05;1.88;;;21.80;48.00;;;;;;4880980;29;20036;-71
2022/05/23 00:26:33;;;;;;;6.88;2.38;;;21.70;47.90;;;;;;4880823;29;20406;-71
2022/05/23 00:28:58;;;;;;;4.40;1.50;;;21.60;47.90;;;;;;4864043;29;20032;-71
2022/05/23 00:31:25;;;;;;;3.63;1.67;;;21.60;48.00;;;;;;4879644;29;20033;-71
2022/05/23 00:36:34;;;;;;;4.45;1.77;;;21.50;47.90;;;;;;4878944;29;20041;-71
2022/05/23 00:39:01;;;;;;;5.30;2.00;;;21.50;48.00;;;;;;4880376;29;20176;-71
2022/05/23 00:44:21;;;;;;;6.35;2.00;;;21.50;48.10;;;;;;4879628;29;20048;-71
2022/05/23 00:47:03;;;;;;;4.05;1.90;;;21.40;48.00;;;;;;4879014;29;20092;-71
2022/05/23 00:49:35;;;;;;;4.45;1.80;;;21.40;48.10;;;;;;4879094;29;20060;-71
2022/05/23 00:52:09;;;;;;;5.15;2.05;;;21.50;49.00;;;;;;4880278;29;20029;-71
2022/05/23 00:54:38;;;;;;;13.90;7.40;;;21.50;48.30;;;;;;4879384;29;20161;-71
2022/05/23 00:57:07;;;;;;;11.20;5.43;;;21.40;48.20;;;;;;4879078;29;20025;-74
2022/05/23 00:59:34;;;;;;;18.30;6.28;;;21.40;48.60;;;;;;4879018;29;20068;-75
2022/05/23 01:02:02;;;;;;;18.13;5.63;;;21.50;48.60;;;;;;4863585;29;20028;-74
2022/05/23 01:04:38;;;;;;;12.55;4.97;;;21.50;48.60;;;;;;4879144;29;20063;-75
2022/05/23 01:07:05;;;;;;;12.20;4.93;;;21.60;48.60;;;;;;4878852;29;20025;-74
2022/05/23 01:09:31;;;;;;;10.27;4.88;;;21.60;48.60;;;;;;4863423;29;20039;-74
2022/05/23 01:11:59;;;;;;;9.18;4.88;;;21.60;48.60;;;;;;4878911;29;20025;-74
2022/05/23 01:14:26;;;;;;;10.40;4.82;;;21.70;48.60;;;;;;4878794;29;20036;-75
2022/05/23 01:16:52;;;;;;;9.48;4.68;;;21.70;48.60;;;;;;4863253;29;20041;-75
2022/05/23 01:19:18;;;;;;;10.20;4.55;;;21.70;48.60;;;;;;4878408;29;20044;-75
2022/05/23 01:21:59;;;;;;;10.38;4.68;;;21.70;48.60;;;;;;4879050;29;20039;-75
2022/05/23 01:24:47;;;;;;;7.53;3.75;;;21.70;48.60;;;;;;4863898;29;20043;-74
2022/05/23 01:27:14;;;;;;;11.88;4.25;;;21.70;48.70;;;;;;4862757;29;20040;-75
2022/05/23 01:29:45;;;;;;;9.20;4.32;;;21.80;48.80;;;;;;4862775;29;20060;-75
2022/05/23 01:32:15;;;;;;;9.10;4.50;;;21.80;48.90;;;;;;4878603;29;20496;-74
2022/05/23 01:34:45;;;;;;;6.65;3.75;;;21.80;48.90;;;;;;4878521;29;20065;-75
2022/05/23 01:37:15;;;;;;;9.77;4.10;;;21.80;48.90;;;;;;4878392;29;20402;-75
2022/05/23 01:40:11;;;;;;;8.68;4.07;;;21.80;49.00;;;;;;4878681;29;20052;-75
2022/05/23 01:42:43;;;;;;;12.82;4.53;;;21.80;49.00;;;;;;4878583;29;20383;-75
2022/05/23 01:45:11;;;;;;;11.05;4.18;;;21.80;49.10;;;;;;4878523;29;20025;-75
2022/05/23 01:47:37;;;;;;;7.78;4.55;;;21.80;49.10;;;;;;4862925;29;20045;-75
2022/05/23 01:50:03;;;;;;;9.80;4.07;;;21.80;49.20;;;;;;4878243;29;20081;-75
2022/05/23 01:52:39;;;;;;;9.15;3.38;;;21.80;49.20;;;;;;4862912;29;20043;-75
2022/05/23 01:55:14;;;;;;;10.45;4.47;;;21.80;49.30;;;;;;4863006;29;20036;-75
2022/05/23 01:57:59;;;;;;;7.38;3.65;;;21.80;49.40;;;;;;4862473;29;20132;-75
2022/05/23 02:03:09;;;;;;;9.93;3.95;;;21.80;49.50;;;;;;4878167;29;20029;-75
2022/05/23 02:05:36;;;;;;;8.95;3.78;;;21.80;49.50;;;;;;4878043;29;20025;-75
2022/05/23 02:08:02;;;;;;;6.38;3.33;;;21.80;49.50;;;;;;4879113;29;20104;-75
2022/05/23 02:10:29;;;;;;;7.72;4.00;;;21.80;49.50;;;;;;4878419;29;20112;-75
2022/05/23 02:12:59;;;;;;;10.60;4.38;;;21.80;49.60;;;;;;4877888;29;20033;-76
2022/05/23 02:15:28;;;;;;;6.85;3.55;;;21.80;49.60;;;;;;4877852;29;20040;-76
2022/05/23 02:18:02;;;;;;;6.97;3.60;;;21.80;49.70;;;;;;4878653;29;20100;-75
2022/05/23 02:20:29;;;;;;;6.53;3.55;;;21.80;49.70;;;;;;4877957;29;20061;-76
2022/05/23 02:22:55;;;;;;;7.63;3.60;;;21.80;49.80;;;;;;4862412;29;20037;-76
2022/05/23 02:25:26;;;;;;;8.63;3.90;;;21.80;49.80;;;;;;4861988;29;20199;-75
2022/05/23 02:27:53;;;;;;;8.25;3.80;;;21.80;49.90;;;;;;4877186;29;20027;-75
2022/05/23 02:30:19;;;;;;;7.65;3.70;;;21.80;49.80;;;;;;4877585;29;20095;-75
2022/05/23 02:32:46;;;;;;;6.57;3.60;;;21.80;49.90;;;;;;4877726;29;20505;-75
2022/05/23 02:35:14;;;;;;;10.02;3.80;;;21.80;49.90;;;;;;4877638;29;20060;-75
2022/05/23 02:37:41;;;;;;;6.80;3.53;;;21.80;50.00;;;;;;4877120;29;20029;-75
2022/05/23 02:40:08;;;;;;;9.32;3.40;;;21.80;50.00;;;;;;4877377;29;20108;-75
2022/05/23 02:42:34;;;;;;;5.43;3.28;;;21.80;49.90;;;;;;4878010;29;20029;-75
2022/05/23 02:45:06;;;;;;;8.20;3.88;;;21.80;50.00;;;;;;4861833;29;20516;-76
2022/05/23 02:47:32;;;;;;;6.05;3.35;;;21.80;50.00;;;;;;4877126;29;20057;-76
2022/05/23 02:50:03;;;;;;;6.63;3.45;;;21.80;50.00;;;;;;4877208;29;20136;-75
2022/05/23 02:52:37;;;;;;;6.45;3.25;;;21.80;50.00;;;;;;4877371;29;20044;-75
2022/05/23 02:55:11;;;;;;;8.25;4.10;;;21.80;50.00;;;;;;4877317;29;20480;-75
2022/05/23 02:57:37;;;;;;;8.43;3.65;;;21.80;50.10;;;;;;4876833;29;20032;-75
2022/05/23 03:00:10;;;;;;;7.97;3.78;;;21.80;50.10;;;;;;4876970;29;20025;-75
2022/05/23 03:05:22;;;;;;;5.78;3.40;;;21.80;50.20;;;;;;4877012;29;20033;-75
2022/05/23 03:07:48;;;;;;;10.18;3.92;;;21.80;50.30;;;;;;4876627;29;20367;-76
2022/05/23 03:10:14;;;;;;;7.57;3.67;;;21.80;50.30;;;;;;4876905;29;20029;-75
2022/05/23 03:12:41;;;;;;;7.00;3.47;;;21.80;50.30;;;;;;4876936;29;20693;-75
2022/05/23 03:15:07;;;;;;;6.68;3.40;;;21.80;50.30;;;;;;4876444;29;20413;-76
2022/05/23 03:17:35;;;;;;;6.45;3.40;;;21.80;50.30;;;;;;4876588;29;20056;-76
2022/05/23 03:20:02;;;;;;;6.10;3.35;;;21.80;50.40;;;;;;4876628;29;20107;-75
2022/05/23 03:27:59;;;;;;;9.10;3.22;;;21.80;50.50;;;;;;4876284;29;20022;-75
2022/05/23 03:30:29;;;;;;;9.52;4.10;;;21.80;50.50;;;;;;4861351;29;20079;-75
2022/05/23 03:32:58;;;;;;;6.22;3.30;;;21.80;50.60;;;;;;4876756;29;20036;-75
2022/05/23 03:35:30;;;;;;;7.03;3.30;;;21.80;50.60;;;;;;4877979;29;20079;-75
2022/05/23 03:37:57;;;;;;;5.25;3.30;;;21.80;50.60;;;;;;4876436;29;20068;-75
2022/05/23 03:40:24;;;;;;;7.57;3.40;;;21.80;50.60;;;;;;4861078;29;20029;-75
2022/05/23 03:42:55;;;;;;;7.35;3.58;;;21.80;50.60;;;;;;4861337;29;20041;-76
2022/05/23 03:45:23;;;;;;;8.25;3.50;;;21.80;51.20;;;;;;4876360;29;20451;-76
2022/05/23 03:47:50;;;;;;;8.05;3.42;;;21.80;50.70;;;;;;4876228;29;20036;-75
2022/05/23 03:50:19;;;;;;;6.95;3.47;;;21.80;50.60;;;;;;4876534;29;20081;-76
2022/05/23 03:52:44;;;;;;;6.03;3.42;;;21.80;50.70;;;;;;4860532;29;20033;-75
2022/05/23 03:55:21;;;;;;;5.15;3.20;;;21.80;50.70;;;;;;4860915;29;20092;-76
2022/05/23 03:57:52;;;;;;;8.02;3.72;;;21.80;50.80;;;;;;4876085;29;20037;-75
2022/05/23 04:00:20;;;;;;;7.78;3.33;;;21.80;50.80;;;;;;4876360;29;20139;-75
2022/05/23 04:02:51;;;;;;;5.80;3.47;;;21.80;50.80;;;;;;4876508;29;20052;-76
2022/05/23 04:05:17;;;;;;;4.68;3.03;;;21.80;50.90;;;;;;4876147;29;20446;-75
2022/05/23 04:08:22;;;;;;;7.35;3.25;;;21.80;50.90;;;;;;4866910;29;20364;-75
2022/05/23 04:10:52;;;;;;;5.15;2.97;;;21.80;50.90;;;;;;4876322;29;20100;-76
2022/05/23 04:13:18;;;;;;;5.53;3.38;;;21.80;51.00;;;;;;4860769;29;20092;-75
2022/05/23 04:15:44;;;;;;;5.57;3.22;;;21.80;51.00;;;;;;4875838;29;20037;-75
2022/05/23 04:18:10;;;;;;;5.70;3.55;;;21.80;51.00;;;;;;4875803;29;20549;-75
2022/05/23 04:20:37;;;;;;;7.75;3.42;;;21.80;51.00;;;;;;4872304;29;20045;-75
2022/05/23 04:23:08;;;;;;;6.47;3.40;;;21.80;51.10;;;;;;4876092;29;20065;-76
2022/05/23 04:25:40;;;;;;;6.25;3.38;;;21.80;51.10;;;;;;4875515;29;20037;-76
2022/05/23 04:28:07;;;;;;;5.65;3.30;;;21.80;51.30;;;;;;4875167;29;21375;-76
2022/05/23 04:30:35;;;;;;;6.47;3.28;;;21.80;51.20;;;;;;4875838;29;20396;-76
2022/05/23 04:35:51;;;;;;;6.47;3.65;;;21.80;51.40;;;;;;4860340;29;20120;-75
2022/05/23 04:38:20;;;;;;;6.18;3.65;;;21.80;51.30;;;;;;4875494;29;20734;-76
2022/05/23 04:40:48;;;;;;;7.05;3.45;;;21.80;51.50;;;;;;4860639;29;20077;-75
2022/05/23 04:43:16;;;;;;;5.63;3.00;;;21.80;51.40;;;;;;4875827;29;20454;-76
2022/05/23 04:45:42;;;;;;;5.38;3.08;;;21.80;51.50;;;;;;4876100;29;20029;-76
2022/05/23 04:51:05;;;;;;;6.80;3.33;;;21.80;51.50;;;;;;4875782;29;20025;-75
2022/05/23 04:53:39;;;;;;;7.50;3.22;;;21.80;51.30;;;;;;4876063;29;20036;-75
2022/05/23 04:56:09;;;;;;;5.88;3.45;;;21.90;51.40;;;;;;4875903;29;20053;-76
2022/05/23 04:58:35;;;;;;;7.28;3.30;;;21.90;51.70;;;;;;4875592;29;20112;-75
2022/05/23 05:01:02;;;;;;;8.10;3.78;;;21.80;52.20;;;;;;4860710;29;20060;-75
2022/05/23 05:03:29;;;;;;;5.38;3.45;;;21.90;51.60;;;;;;4875771;29;20033;-75
2022/05/23 05:05:55;;;;;;;6.93;3.50;;;21.80;51.80;;;;;;4862794;29;20489;-76
2022/05/23 05:08:21;;;;;;;5.40;3.20;;;21.80;51.60;;;;;;4863477;29;20435;-76
2022/05/23 05:10:50;;;;;;;5.50;2.90;;;21.80;51.50;;;;;;4879106;29;20029;-75
2022/05/23 05:13:16;;;;;;;7.35;3.63;;;21.80;51.70;;;;;;4879123;29;20113;-76
2022/05/23 05:15:42;;;;;;;6.35;3.05;;;21.90;51.80;;;;;;4879114;29;20049;-76
2022/05/23 05:18:30;;;;;;;5.25;3.10;;;21.90;51.80;;;;;;4891115;23;20033;-75
2022/05/23 05:21:32;;;;;;;6.38;3.25;;;21.80;51.60;;;;;;4885380;29;20033;-77
2022/05/23 05:24:17;;;;;;;5.30;3.00;;;21.90;51.70;;;;;;4873815;29;20045;-78
2022/05/23 05:27:02;;;;;;;5.43;3.22;;;21.90;51.80;;;;;;4878989;29;20025;-77
2022/05/23 05:29:29;;;;;;;5.15;3.30;;;21.90;51.70;;;;;;4878627;29;20064;-76
2022/05/23 05:32:01;;;;;;;4.93;3.08;;;21.90;51.60;;;;;;4880140;29;20100;-77
2022/05/23 05:34:32;;;;;;;9.02;3.67;;;21.90;51.90;;;;;;4878690;29;20041;-74
2022/05/23 05:37:06;;;;;;;12.38;3.30;;;21.80;52.00;;;;;;4848105;29;20506;-75
2022/05/23 05:39:34;;;;;;;10.02;3.63;;;21.90;51.60;;;;;;4862919;29;20037;-75
2022/05/23 05:42:12;;;;;;;14.00;3.53;;;21.80;51.50;;;;;;4878352;29;20037;-74
2022/05/23 05:44:48;;;;;;;9.55;3.38;;;21.80;51.50;;;;;;4878262;29;20029;-74
2022/05/23 05:47:16;;;;;;;6.75;2.97;;;21.90;51.60;;;;;;4878253;29;20022;-74
2022/05/23 05:49:46;;;;;;;9.00;3.00;;;21.90;51.50;;;;;;4878002;29;20033;-74
2022/05/23 05:52:18;;;;;;;7.18;3.28;;;21.90;51.70;;;;;;4878320;29;20036;-74
2022/05/23 05:54:51;;;;;;;6.30;2.92;;;21.80;51.50;;;;;;4878149;29;20667;-75
2022/05/23 05:57:18;;;;;;;5.05;2.97;;;21.80;51.30;;;;;;4877897;29;20033;-74
2022/05/23 05:59:45;;;;;;;7.78;3.30;;;21.80;51.40;;;;;;4877968;29;20040;-74
2022/05/23 06:02:14;;;;;;;7.10;3.38;;;21.80;51.30;;;;;;4878196;29;20036;-74
2022/05/23 06:04:40;;;;;;;6.32;2.92;;;21.80;51.20;;;;;;4878057;29;20057;-75
2022/05/23 06:13:39;;;;;;;7.78;3.33;;;21.80;51.10;;;;;;4877823;29;20044;-74
2022/05/23 06:16:07;;;;;;;6.43;2.67;;;21.80;51.10;;;;;;4877035;29;20037;-74
2022/05/23 06:18:40;;;;;;;5.90;2.83;;;21.80;50.90;;;;;;4877317;29;20032;-74
2022/05/23 06:21:09;;;;;;;6.47;2.83;;;21.80;51.00;;;;;;4877738;29;20044;-74
2022/05/23 06:23:38;;;;;;;7.90;3.00;;;21.80;50.80;;;;;;4877517;29;20073;-74
2022/05/23 06:26:42;;;;;;;5.00;2.70;;;21.80;51.10;;;;;;4875273;29;20025;-74
2022/05/23 06:29:24;;;;;;;6.20;2.83;;;21.80;51.00;;;;;;4864028;29;20452;-74
2022/05/23 06:31:50;;;;;;;6.53;2.90;;;21.80;50.90;;;;;;4862319;29;20029;-74
2022/05/23 06:34:20;;;;;;;6.15;3.00;;;21.80;50.90;;;;;;4877275;29;20060;-75
2022/05/23 06:36:50;;;;;;;6.10;2.70;;;21.80;51.10;;;;;;4877655;29;20041;-74
2022/05/23 06:39:17;;;;;;;6.45;2.58;;;21.90;51.10;;;;;;4846509;29;20104;-74
2022/05/23 06:42:21;;;;;;;7.35;2.67;;;21.80;51.10;;;;;;4857671;29;20041;-74
2022/05/23 06:45:25;;;;;;;4.57;2.83;;;21.80;50.90;;;;;;4857381;29;20037;-74
2022/05/23 06:48:26;;;;;;;6.15;2.85;;;21.90;51.00;;;;;;4855786;29;20121;-74
2022/05/23 06:51:03;;;;;;;6.43;2.88;;;21.80;50.90;;;;;;4872137;29;20045;-75
2022/05/23 06:53:35;;;;;;;6.20;2.35;;;21.80;50.90;;;;;;4877126;29;20053;-75
2022/05/23 06:56:10;;;;;;;9.45;3.22;;;21.80;51.00;;;;;;4861715;29;20101;-75
2022/05/23 06:58:39;;;;;;;6.40;2.83;;;21.80;50.90;;;;;;4876790;29;20086;-75
2022/05/23 07:01:15;;;;;;;5.15;2.70;;;21.80;51.00;;;;;;4877244;29;20025;-75
2022/05/23 07:04:10;;;;;;;6.90;2.80;;;21.80;51.00;;;;;;4877030;29;20045;-75
2022/05/23 07:12:24;;;;;;;7.03;2.65;;;21.80;50.90;;;;;;4877022;29;20124;-75
2022/05/23 07:14:56;;;;;;;7.10;2.75;;;21.80;50.80;;;;;;4876814;29;20037;-75
2022/05/23 07:17:23;;;;;;;8.13;2.60;;;21.80;50.90;;;;;;4861210;29;20482;-75
2022/05/23 07:20:12;;;;;;;6.70;2.58;;;21.80;50.90;;;;;;4876358;29;20116;-75
2022/05/23 07:22:41;;;;;;;5.72;2.75;;;21.90;50.90;;;;;;4876784;29;20057;-75
2022/05/23 07:25:07;;;;;;;6.70;3.00;;;21.90;50.80;;;;;;4876631;29;20108;-75
2022/05/23 07:27:33;;;;;;;3.83;2.35;;;21.90;50.80;;;;;;4860675;29;20148;-74
2022/05/23 07:29:59;;;;;;;6.32;2.38;;;21.80;50.60;;;;;;4876622;29;20108;-75
2022/05/23 07:32:29;;;;;;;;;;;21.90;50.50;;;;;;4877208;29;20025;-75
2022/05/23 07:34:56;;;;;;;5.93;2.38;;;21.90;50.50;;;;;;4876445;29;20392;-75
2022/05/23 07:37:22;;;;;;;5.35;2.53;;;21.90;50.60;;;;;;4876216;29;20116;-75
2022/05/23 07:39:48;;;;;;;6.57;2.25;;;21.90;50.50;;;;;;4861033;29;20080;-76
2022/05/23 07:42:47;;;;;;;5.05;2.30;;;21.90;50.40;;;;;;4871932;29;20123;-75
2022/05/23 07:45:14;;;;;;;6.15;2.30;;;21.90;50.40;;;;;;4876318;29;20508;-75
2022/05/23 07:47:45;;;;;;;5.57;2.45;;;21.90;50.20;;;;;;4876424;29;20402;-75
2022/05/23 07:50:21;;;;;;;4.30;2.10;;;21.90;50.30;;;;;;4862087;29;20450;-75
2022/05/23 08:01:08;;;;;;;4.88;2.10;;;21.90;50.20;;;;;;4875953;29;20032;-75
2022/05/23 08:03:34;;;;;;;4.50;2.33;;;21.90;50.30;;;;;;4876163;29;20059;-75
2022/05/23 08:06:06;;;;;;;4.60;2.10;;;21.90;50.40;;;;;;4875970;29;20037;-75
2022/05/23 08:08:32;;;;;;;5.15;2.25;;;21.90;50.60;;;;;;4875909;29;20076;-75
2022/05/23 08:11:00;;;;;;;5.65;2.10;;;21.90;50.70;;;;;;4877423;29;20549;-75
2022/05/23 08:13:32;;;;;;;4.25;2.10;;;21.90;50.60;;;;;;4860672;29;20033;-75
2022/05/23 08:15:57;;;;;;;3.65;1.63;;;21.90;50.60;;;;;;4876108;29;20037;-75
2022/05/23 08:18:24;;;;;;;3.95;1.90;;;21.90;50.40;;;;;;4875980;29;20120;-74
2022/05/23 08:20:54;;;;;;;4.97;2.00;;;21.90;50.30;;;;;;4876049;29;20074;-74
2022/05/23 08:23:27;;;;;;;5.22;2.20;;;21.90;50.50;;;;;;4876055;29;20554;-75
2022/05/23 08:26:14;;;;;;;4.65;1.95;;;21.90;50.50;;;;;;4876171;29;20502;-75
2022/05/23 08:28:44;;;;;;;6.10;1.98;;;21.90;50.20;;;;;;4875944;29;20117;-75
2022/05/23 08:31:11;;;;;;;3.92;1.85;;;21.90;51.00;;;;;;4876046;29;20361;-75
2022/05/23 08:33:57;;;;;;;5.90;2.03;;;21.90;50.50;;;;;;4877224;29;20053;-75
2022/05/23 08:36:29;;;;;;;5.53;1.95;;;21.90;50.50;;;;;;4875799;29;20116;-76
2022/05/23 08:38:55;;;;;;;4.55;1.75;;;21.90;50.30;;;;;;4875843;29;20066;-75
2022/05/23 08:41:29;;;;;;;5.57;2.13;;;21.90;50.30;;;;;;4879805;29;20112;-75
2022/05/23 08:44:19;;;;;;;5.18;1.75;;;22.00;50.30;;;;;;4879515;29;20033;-75
2022/05/23 08:47:06;;;;;;;4.07;1.58;;;22.00;50.20;;;;;;4879730;29;20104;-75
2022/05/23 08:49:45;;;;;;;4.13;2.08;;;22.00;50.30;;;;;;4879423;29;20143;-75
2022/05/23 08:52:29;;;;;;;6.47;1.70;;;21.90;50.20;;;;;;4879405;29;20586;-75
2022/05/23 08:55:06;;;;;;;5.97;2.20;;;21.90;50.30;;;;;;4864078;29;20041;-75
2022/05/23 08:58:12;;;;;;;3.75;1.60;;;21.90;50.20;;;;;;4879125;29;20139;-75
2022/05/23 09:00:44;;;;;;;4.07;1.80;;;21.90;50.30;;;;;;4879415;29;20489;-75
2022/05/23 09:03:18;;;;;;;4.43;1.80;;;21.90;50.20;;;;;;4879381;29;20032;-75
2022/05/23 09:05:51;;;;;;;3.70;1.80;;;21.90;50.10;;;;;;4864068;29;20040;-75
2022/05/23 09:08:22;;;;;;;3.63;1.55;;;22.00;50.30;;;;;;4880313;29;20486;-75
2022/05/23 09:10:59;;;;;;;4.35;1.80;;;21.90;50.20;;;;;;4880427;29;20068;-75
2022/05/23 09:13:32;;;;;;;4.97;2.45;;;22.00;50.10;;;;;;4879345;29;20033;-75
2022/05/23 09:16:04;;;;;;;6.00;1.90;;;21.90;49.90;;;;;;4880237;29;20453;-76
2022/05/23 09:18:43;;;;;;;6.63;1.67;;;22.00;49.90;;;;;;4880038;29;20033;-75
2022/05/23 09:21:09;;;;;;;;;;;22.00;50.10;;;;;;4880602;29;20049;-76
2022/05/23 09:23:45;;;;;;;6.82;1.92;;;22.00;50.10;;;;;;4880420;29;19912;-76
2022/05/23 09:26:29;;;;;;;10.88;2.10;;;22.00;50.30;;;;;;4880527;29;20036;-75
2022/05/23 09:28:55;;;;;;;8.10;2.08;;;22.00;50.60;;;;;;4879830;29;20029;-76
2022/05/23 09:31:56;;;;;;;5.88;1.90;;;22.00;50.70;;;;;;4878826;29;20390;-76
2022/05/23 09:34:33;;;;;;;8.27;2.15;;;22.00;50.00;;;;;;4875730;29;20029;-75
2022/05/23 09:37:01;;;;;;;10.43;2.65;;;22.10;49.90;;;;;;4878498;29;20060;-76
2022/05/23 09:39:29;;;;;;;4.82;1.65;;;22.10;49.20;;;;;;4875759;29;20048;-75
2022/05/23 09:48:13;;;;;;;7.47;2.90;;;22.10;49.50;;;;;;4877811;29;20199;-77
2022/05/23 09:50:42;;;;;;;12.68;2.90;;;22.00;48.80;;;;;;4878627;29;20104;-77
2022/05/23 09:53:24;;;;;;;8.60;2.33;;;22.00;47.90;;;;;;4876714;29;20025;-77
2022/05/23 09:55:51;;;;;;;9.85;2.78;;;22.00;47.40;;;;;;4878497;29;20033;-77
2022/05/23 09:58:31;;;;;;;17.17;2.92;;;22.00;47.80;;;;;;4877698;29;20033;-76
2022/05/23 10:01:04;;;;;;;13.35;2.63;;;22.00;49.30;;;;;;4876519;29;20529;-77
2022/05/23 10:03:31;;;;;;;11.38;2.85;;;22.00;46.90;;;;;;4877747;29;20033;-77
2022/05/23 10:06:05;;;;;;;11.88;3.25;;;22.00;47.60;;;;;;4874362;29;20474;-78
2022/05/23 10:08:35;;;;;;;9.65;2.58;;;22.00;48.30;;;;;;4876523;29;20047;-77
2022/05/23 10:11:32;;;;;;;10.70;2.20;;;22.00;47.50;;;;;;4860909;29;20064;-78
2022/05/23 10:14:06;;;;;;;7.75;2.17;;;22.00;47.40;;;;;;4877519;29;20033;-77
2022/05/23 10:16:49;;;;;;;9.30;2.60;;;22.10;47.70;;;;;;4877450;29;20039;-77
2022/05/23 10:19:31;;;;;;;12.60;2.58;;;22.00;47.70;;;;;;4876882;29;20032;-78
2022/05/23 10:22:18;;;;;;;9.43;2.38;;;22.00;47.80;;;;;;4877490;29;20398;-77
2022/05/23 10:24:51;;;;;;;11.95;2.47;;;22.00;48.20;;;;;;4877179;29;20125;-79
2022/05/23 10:27:30;;;;;;;6.35;2.60;;;22.10;49.00;;;;;;4876736;29;20459;-78
2022/05/23 10:30:00;;;;;;;8.13;2.65;;;22.00;47.20;;;;;;4876001;29;20115;-78
2022/05/23 10:32:41;;;;;;;18.33;4.03;;;22.00;48.70;;;;;;4876846;29;20067;-78
2022/05/23 10:35:38;;;;;;;10.93;4.35;;;22.20;46.90;;;;;;4875408;29;20052;-79
2022/05/23 10:42:07;;;;;;;14.45;4.22;;;22.20;47.80;;;;;;4859248;29;20051;-79
2022/05/23 10:44:44;;;;;;;11.35;3.20;;;22.20;47.50;;;;;;4872773;29;20048;-80
2022/05/23 10:47:48;;;;;;;12.25;3.25;;;22.20;47.80;;;;;;4866465;29;20045;-80
2022/05/23 10:50:22;;;;;;;11.43;3.42;;;22.20;47.90;;;;;;4876857;29;20040;-79
2022/05/23 10:53:26;;;;;;;12.55;3.92;;;22.10;48.00;;;;;;4875851;29;20030;-80
2022/05/23 10:56:13;;;;;;;7.68;3.40;;;22.10;48.10;;;;;;4877103;29;20037;-79
2022/05/23 10:58:55;;;;;;;13.40;4.40;;;22.10;48.30;;;;;;4875331;29;20454;-79
2022/05/23 11:01:35;;;;;;;9.32;3.78;;;22.10;48.30;;;;;;4877121;29;20033;-79
2022/05/23 11:04:26;;;;;;;13.13;4.35;;;22.10;48.50;;;;;;4877821;29;20032;-79
2022/05/23 11:06:59;;;;;;;13.85;3.88;;;22.20;48.60;;;;;;4878643;29;20029;-79
2022/05/23 11:09:55;;;;;;;11.75;4.05;;;22.10;48.50;;;;;;4877015;29;20037;-80
2022/05/23 11:12:54;;;;;;;10.23;4.13;;;22.10;48.60;;;;;;4877390;29;20033;-80
2022/05/23 11:15:32;;;;;;;11.65;4.00;;;22.10;48.70;;;;;;4877182;29;20482;-79
2022/05/23 11:18:22;;;;;;;11.73;4.07;;;22.10;48.80;;;;;;4876896;29;20056;-80
2022/05/23 11:20:54;;;;;;;11.73;4.18;;;22.10;48.80;;;;;;4903385;23;20079;-75
2022/05/23 11:23:47;;;;;;;13.77;4.45;;;22.20;49.00;;;;;;4885549;29;20119;-75
2022/05/23 11:26:21;;;;;;;16.98;6.05;;;22.10;49.10;;;;;;4894477;29;20041;-75
2022/05/23 11:35:03;;;;;;;22.75;7.85;;;22.20;50.30;;;;;;4894437;29;20037;-77
2022/05/23 11:37:49;;;;;;;19.92;6.47;;;22.20;50.50;;;;;;4893446;29;20045;-78
2022/05/23 11:40:39;;;;;;;22.17;7.47;;;22.20;50.50;;;;;;4894759;29;20556;-77
2022/05/23 11:43:16;;;;;;;15.80;5.90;;;22.20;51.00;;;;;;4892206;29;20061;-75
2022/05/23 11:45:57;;;;;;;17.75;6.00;;;22.20;51.50;;;;;;4891676;29;20083;-77
2022/05/23 11:51:30;;;;;;;12.27;4.82;;;22.20;50.00;;;;;;4894354;29;20037;-77
2022/05/23 11:54:36;;;;;;;14.75;5.38;;;22.20;50.30;;;;;;4891553;29;20155;-77
2022/05/23 11:57:02;;;;;;;16.48;5.53;;;22.20;52.30;;;;;;4817769;29;20548;-76
2022/05/23 12:02:26;;;;;;;15.55;5.57;;;22.20;50.60;;;;;;4870391;29;20039;-76
2022/05/23 12:04:58;;;;;;;15.40;5.80;;;22.20;52.30;;;;;;4860311;29;20028;-76
2022/05/23 12:07:31;;;;;;;16.90;5.72;;;22.30;52.00;;;;;;4891320;29;20037;-79
2022/05/23 12:10:25;;;;;;;20.60;5.70;;;22.30;52.30;;;;;;4896656;29;20032;-79
2022/05/23 12:12:55;;;;;;;25.88;5.75;;;22.30;52.10;;;;;;4881529;29;20103;-78
2022/05/23 12:15:43;;;;;;;30.13;6.20;;;22.20;52.70;;;;;;4882557;29;20092;-80
2022/05/23 12:18:12;;;;;;;22.65;5.68;;;22.20;51.80;;;;;;4900046;29;20047;-80
2022/05/23 12:20:47;;;;;;;19.25;5.93;;;22.20;52.60;;;;;;4881555;29;20036;-77
2022/05/23 12:23:42;;;;;;;22.60;5.75;;;22.20;52.00;;;;;;4880097;29;20398;-78
2022/05/23 12:26:12;;;;;;;21.55;5.63;;;22.20;51.70;;;;;;4863387;29;20095;-76
2022/05/23 12:29:00;;;;;;;24.05;5.60;;;22.30;49.90;;;;;;4892956;29;20031;-76
2022/05/23 12:31:30;;;;;;;14.30;4.82;;;22.30;50.60;;;;;;4894007;29;20100;-76
2022/05/23 12:34:02;;;;;;;22.13;5.50;;;22.30;49.80;;;;;;4894284;29;20032;-76
2022/05/23 12:36:31;;;;;;;14.55;4.72;;;22.30;50.20;;;;;;4895119;29;20111;-76
2022/05/23 12:39:25;;;;;;;22.63;5.05;;;22.30;50.90;;;;;;4896151;29;20124;-76
2022/05/23 12:42:13;;;;;;;14.63;4.50;;;22.30;51.40;;;;;;4895944;29;20401;-76
2022/05/23 12:44:57;;;;;;;15.43;4.80;;;22.30;51.20;;;;;;4893840;29;20037;-77
2022/05/23 12:47:41;;;;;;;16.90;4.18;;;22.30;50.40;;;;;;4893276;29;20119;-77
2022/05/23 12:50:18;;;;;;;13.07;4.43;;;22.30;50.90;;;;;;4880219;29;20033;-77
2022/05/23 12:53:20;;;;;;;17.48;4.82;;;22.30;50.30;;;;;;4896935;29;20112;-77
2022/05/23 12:56:17;;;;;;;11.00;4.30;;;22.30;50.50;;;;;;4892627;29;20037;-77
2022/05/23 12:59:23;;;;;;;17.92;4.70;;;22.30;50.80;;;;;;4895326;29;20036;-76
2022/05/23 13:01:53;;;;;;;14.00;4.70;;;22.30;51.60;;;;;;4894329;29;20037;-76
2022/05/23 13:04:28;;;;;;;14.52;3.97;;;22.30;51.50;;;;;;4895901;29;20087;-75
2022/05/23 13:07:12;;;;;;;11.48;4.05;;;22.40;52.10;;;;;;4891066;29;20065;-76
2022/05/23 13:09:56;;;;;;;12.68;4.35;;;22.40;51.80;;;;;;4895778;29;20057;-76
2022/05/23 13:12:30;;;;;;;13.98;3.97;;;22.40;51.40;;;;;;4891958;29;20024;-77
2022/05/23 13:15:00;;;;;;;18.38;4.70;;;22.40;51.50;;;;;;4893729;29;20036;-77
2022/05/23 13:17:39;;;;;;;14.25;4.40;;;22.40;51.50;;;;;;4895048;29;20127;-74
2022/05/23 13:23:17;;;;;;;11.18;3.70;;;22.30;51.00;;;;;;4900970;29;20036;-84
2022/05/23 13:25:45;;;;;;;13.13;3.60;;;22.30;50.10;;;;;;4904351;29;20088;-80
2022/05/23 13:28:15;;;;;;;12.60;3.80;;;22.30;49.80;;;;;;4900380;29;20378;-86
2022/05/23 13:30:52;;;;;;;13.40;3.10;;;22.30;49.80;;;;;;4885546;29;20740;-84
2022/05/23 13:33:22;;;;;;;11.65;3.70;;;22.30;47.60;;;;;;4901417;29;20055;-84
2022/05/23 13:35:55;;;;;;;10.95;2.80;;;22.30;49.50;;;;;;4902072;29;20032;-83
2022/05/23 13:38:25;;;;;;;13.48;3.55;;;22.30;48.10;;;;;;4903091;29;20040;-82
2022/05/23 13:41:00;;;;;;;10.57;2.97;;;22.30;49.40;;;;;;4900174;29;20630;-80
2022/05/23 13:43:42;;;;;;;11.93;3.40;;;22.30;49.40;;;;;;4898235;29;20108;-81
2022/05/23 13:46:34;;;;;;;15.05;6.55;;;22.30;49.40;;;;;;4887915;29;20029;-82
2022/05/23 13:49:15;;;;;;;14.00;5.80;;;22.30;48.40;;;;;;4900266;29;20032;-82
2022/05/23 13:51:49;;;;;;;19.38;5.95;;;22.30;48.20;;;;;;4884112;29;20490;-82
2022/05/23 13:54:47;;;;;;;11.93;5.03;;;22.30;48.80;;;;;;4882952;29;20032;-83
2022/05/23 13:57:26;;;;;;;9.13;4.05;;;22.30;49.30;;;;;;4879474;29;20056;-81
2022/05/23 13:59:52;;;;;;;10.15;4.10;;;22.30;49.00;;;;;;4876991;29;20032;-80
2022/05/23 14:02:20;;;;;;;11.07;3.92;;;22.30;48.80;;;;;;4876458;29;20035;-81
2022/05/23 14:04:47;;;;;;;12.75;4.20;;;22.30;47.50;;;;;;4877890;29;20403;-80
2022/05/23 14:07:16;;;;;;;9.85;3.63;;;22.30;47.30;;;;;;4895874;29;20048;-81
2022/05/23 14:09:47;;;;;;;6.68;3.05;;;22.30;47.60;;;;;;4872390;29;20056;-81
2022/05/23 14:12:21;;;;;;;11.90;3.42;;;22.30;47.90;;;;;;4878590;29;20025;-80
2022/05/23 14:15:00;;;;;;;16.02;3.72;;;22.30;47.70;;;;;;4884130;29;20123;-77
2022/05/23 14:17:32;;;;;;;11.43;3.40;;;22.30;48.10;;;;;;4891688;29;20040;-78
2022/05/23 14:20:13;;;;;;;7.85;2.92;;;22.30;48.40;;;;;;4896510;29;20524;-80
2022/05/23 14:22:40;;;;;;;11.20;3.08;;;22.30;46.60;;;;;;4894140;29;20084;-81
2022/05/23 14:25:24;;;;;;;7.38;2.88;;;22.30;47.40;;;;;;4864439;29;20040;-81
2022/05/23 14:27:52;;;;;;;7.85;2.92;;;22.30;47.90;;;;;;4892203;29;20079;-82